Time;durP1;ratioP1;P1;durP2;ratioP2;P2;SDS_P1;SDS_P2;PMS_P1;PMS_P2;Temp;Humidity;BMP_temperature;BMP_pressure;BME280_temperature;BME280_humidity;BME280_pressure;Samples;Min_cycle;Max_cycle;Signal;HPM_P1;HPM_P2
2022/11/16 00:01:51;;;;;;;14.63;9.27;;;;;;;9.80;100.00;99850.88;5033112;28;20394;-77
2022/11/16 00:04:16;;;;;;;13.02;9.50;;;;;;;9.82;100.00;99859.56;5032996;28;20032;-78
2022/11/16 00:06:42;;;;;;;15.85;9.50;;;;;;;9.83;100.00;99850.56;5032945;28;20394;-77
2022/11/16 00:09:22;;;;;;;13.45;10.25;;;;;;;9.86;100.00;99847.59;5032838;28;20038;-77
2022/11/16 00:11:50;;;;;;;14.75;9.07;;;;;;;9.86;100.00;99849.44;5032827;28;20037;-77
2022/11/16 00:14:16;;;;;;;14.00;9.52;;;;;;;9.86;100.00;99850.25;5034448;28;20033;-78
2022/11/16 00:16:41;;;;;;;14.88;10.00;;;;;;;9.87;100.00;99846.63;5036510;28;20135;-77
2022/11/16 00:19:08;;;;;;;14.65;9.85;;;;;;;9.87;100.00;99843.97;5036862;28;20478;-77
2022/11/16 00:21:34;;;;;;;17.27;10.15;;;;;;;9.88;100.00;99852.75;5036572;28;20104;-78
2022/11/16 00:23:59;;;;;;;15.48;10.02;;;;;;;9.89;100.00;99851.78;5036483;28;20033;-77
2022/11/16 00:26:25;;;;;;;15.13;10.05;;;;;;;9.87;100.00;99843.97;5036865;28;20065;-77
2022/11/16 00:28:52;;;;;;;15.45;10.07;;;;;;;9.87;100.00;99851.94;5036944;28;20033;-77
2022/11/16 00:31:17;;;;;;;14.82;10.18;;;;;;;9.87;100.00;99854.59;5036388;28;20441;-78
2022/11/16 00:33:43;;;;;;;15.10;10.75;;;;;;;9.88;100.00;99858.91;5036431;28;20033;-77
2022/11/16 00:36:10;;;;;;;12.95;10.30;;;;;;;9.87;100.00;99857.25;5036441;28;20076;-77
2022/11/16 00:38:36;;;;;;;15.27;10.00;;;;;;;9.88;100.00;99860.72;5036410;28;20479;-77
2022/11/16 00:41:02;;;;;;;16.75;10.77;;;;;;;9.87;100.00;99861.75;5035826;28;20037;-77
2022/11/16 00:43:28;;;;;;;14.07;10.00;;;;;;;9.87;100.00;99856.41;5035960;28;20090;-77
2022/11/16 00:45:53;;;;;;;15.38;10.25;;;;;;;9.88;100.00;99860.72;5036643;28;20029;-77
2022/11/16 00:48:19;;;;;;;14.82;10.35;;;;;;;9.88;100.00;99853.59;5036146;28;20493;-79
2022/11/16 00:50:45;;;;;;;14.25;10.40;;;;;;;9.88;100.00;99850.09;5036201;28;20052;-77
2022/11/16 00:53:13;;;;;;;20.13;10.55;;;;;;;9.87;100.00;99865.22;5036605;28;20034;-79
2022/11/16 00:55:39;;;;;;;17.80;10.68;;;;;;;9.88;100.00;99860.72;5036422;28;20370;-80
2022/11/16 00:58:04;;;;;;;16.95;10.90;;;;;;;9.89;100.00;99865.88;5036173;28;20030;-80
2022/11/16 01:00:30;;;;;;;18.75;11.00;;;;;;;9.89;100.00;99871.19;5037004;28;20364;-79
2022/11/16 01:02:55;;;;;;;13.73;9.52;;;;;;;9.89;100.00;99870.38;5037519;28;20030;-79
2022/11/16 01:05:22;;;;;;;11.43;8.50;;;;;;;9.88;100.00;99879.31;5036089;28;20113;-80
2022/11/16 01:07:48;;;;;;;13.35;8.52;;;;;;;9.84;100.00;99873.50;5035873;28;20053;-78
2022/11/16 01:10:16;;;;;;;12.95;8.05;;;;;;;9.80;100.00;99876.63;5035498;28;20537;-79
2022/11/16 01:12:43;;;;;;;10.82;8.35;;;;;;;9.76;100.00;99880.59;5035830;28;20109;-78
2022/11/16 01:15:09;;;;;;;10.77;7.47;;;;;;;9.72;100.00;99874.78;5035626;28;20029;-78
2022/11/16 01:17:38;;;;;;;11.88;8.00;;;;;;;9.70;100.00;99866.09;5035566;28;20099;-78
2022/11/16 01:20:08;;;;;;;11.07;7.97;;;;;;;9.65;100.00;99863.09;5035476;28;20084;-78
2022/11/16 01:22:37;;;;;;;9.52;7.65;;;;;;;9.62;100.00;99864.25;5035341;28;20108;-78
2022/11/16 01:25:04;;;;;;;10.68;6.93;;;;;;;9.57;100.00;99863.88;5034787;28;20087;-78
2022/11/16 01:27:29;;;;;;;13.73;7.95;;;;;;;9.53;100.00;99855.38;5035402;28;20133;-78
2022/11/16 01:29:55;;;;;;;10.70;7.78;;;;;;;9.49;100.00;99854.06;5035626;28;20053;-77
2022/11/16 01:32:20;;;;;;;10.75;7.40;;;;;;;9.44;100.00;99856.31;5035268;28;20116;-78
2022/11/16 01:34:45;;;;;;;13.07;7.50;;;;;;;9.41;100.00;99855.81;5035477;28;20068;-78
2022/11/16 01:37:11;;;;;;;12.88;7.40;;;;;;;9.38;100.00;99854.31;5035290;28;20032;-78
2022/11/16 01:39:36;;;;;;;10.43;7.80;;;;;;;9.37;100.00;99857.09;5035084;28;20053;-78
2022/11/16 01:42:02;;;;;;;10.90;7.70;;;;;;;9.33;100.00;99848.59;5035120;28;20030;-77
2022/11/16 01:44:30;;;;;;;12.57;8.65;;;;;;;9.32;100.00;99852.25;5035258;28;20037;-78
2022/11/16 01:46:59;;;;;;;13.10;8.55;;;;;;;9.31;100.00;99854.06;5035060;28;20108;-77
2022/11/16 01:49:28;;;;;;;13.23;8.68;;;;;;;9.29;100.00;99847.28;5034777;28;20470;-78
2022/11/16 01:52:07;;;;;;;13.30;9.02;;;;;;;9.26;100.00;99848.41;5035430;28;20025;-77
2022/11/16 01:54:36;;;;;;;13.95;8.98;;;;;;;9.24;100.00;99846.88;5034926;28;20029;-78
2022/11/16 01:57:06;;;;;;;13.02;9.02;;;;;;;9.24;100.00;99850.38;5034842;28;20025;-78
2022/11/16 01:59:32;;;;;;;14.68;9.32;;;;;;;9.22;100.00;99857.66;5034910;28;20057;-77
2022/11/16 02:02:01;;;;;;;14.23;9.15;;;;;;;9.21;100.00;99844.53;5034688;28;20124;-77
2022/11/16 02:04:26;;;;;;;13.30;9.30;;;;;;;9.20;100.00;99848.19;5050579;28;20030;-77
2022/11/16 02:07:04;;;;;;;15.18;9.73;;;;;;;9.18;100.00;99856.28;5034383;28;20046;-76
2022/11/16 02:09:52;;;;;;;16.95;9.45;;;;;;;9.15;100.00;99862.75;5034663;28;20044;-82
2022/11/16 02:12:36;;;;;;;14.13;8.90;;;;;;;9.12;100.00;99862.22;5034026;28;20083;-76
2022/11/16 02:15:20;;;;;;;13.20;8.20;;;;;;;9.09;100.00;99867.84;5035904;28;20099;-76
2022/11/16 02:18:19;;;;;;;16.38;9.05;;;;;;;9.07;100.00;99865.34;5035686;28;20042;-76
2022/11/16 02:21:03;;;;;;;12.85;9.00;;;;;;;9.03;100.00;99869.28;5033536;28;20028;-78
2022/11/16 02:24:03;;;;;;;13.32;9.10;;;;;;;9.00;100.00;99861.63;5034375;28;20032;-77
2022/11/16 02:27:01;;;;;;;14.23;8.77;;;;;;;8.97;100.00;99857.47;5034821;28;20148;-77
2022/11/16 02:29:34;;;;;;;15.13;9.60;;;;;;;8.96;100.00;99850.50;5034430;28;20048;-78
2022/11/16 02:32:09;;;;;;;15.88;9.68;;;;;;;8.93;100.00;99852.63;5033141;28;20374;-78
2022/11/16 02:34:47;;;;;;;16.85;10.20;;;;;;;8.90;100.00;99850.28;5034425;28;20025;-78
2022/11/16 02:37:17;;;;;;;17.30;10.45;;;;;;;8.86;100.00;99849.72;5034063;28;20040;-77
2022/11/16 02:39:46;;;;;;;15.90;10.15;;;;;;;8.83;100.00;99850.03;5034234;28;20022;-77
2022/11/16 02:42:19;;;;;;;18.65;10.23;;;;;;;8.79;100.00;99857.47;5034225;28;20030;-77
2022/11/16 02:44:48;;;;;;;18.58;10.50;;;;;;;8.78;100.00;99854.97;5033261;28;20087;-76
2022/11/16 02:47:27;;;;;;;16.02;10.73;;;;;;;8.75;100.00;99845.50;5034150;28;20030;-77
2022/11/16 02:50:10;;;;;;;17.95;10.68;;;;;;;8.73;100.00;99847.47;5033221;28;20065;-76
2022/11/16 02:52:36;;;;;;;16.73;10.18;;;;;;;8.68;100.00;99846.25;5034416;28;20037;-77
2022/11/16 02:55:02;;;;;;;16.65;9.55;;;;;;;8.64;100.00;99841.25;5034827;28;20082;-78
2022/11/16 02:57:48;;;;;;;16.92;9.35;;;;;;;8.61;100.00;99852.16;5034548;28;20037;-78
2022/11/16 03:00:20;;;;;;;16.42;8.77;;;;;;;8.58;100.00;99851.63;5036378;28;20037;-77
2022/11/16 03:03:11;;;;;;;15.90;8.50;;;;;;;8.54;100.00;99853.75;5035564;28;20055;-77
2022/11/16 03:06:00;;;;;;;23.98;8.48;;;;;;;8.52;100.00;99850.38;5034148;28;20524;-77
2022/11/16 03:08:30;;;;;;;14.32;7.22;;;;;;;8.50;100.00;99855.03;5050513;28;20102;-77
2022/11/16 03:13:46;;;;;;;10.05;6.75;;;;;;;8.46;100.00;99846.56;5034181;28;20252;-77
2022/11/16 03:16:23;;;;;;;10.80;6.15;;;;;;;8.45;100.00;99847.53;5035104;28;20506;-77
2022/11/16 03:18:51;;;;;;;13.13;6.07;;;;;;;8.43;100.00;99852.13;5034160;28;20033;-79
2022/11/16 03:21:51;;;;;;;13.27;5.57;;;;;;;8.42;100.00;99855.75;5033769;28;20090;-76
2022/11/16 03:24:16;;;;;;;13.25;5.80;;;;;;;8.42;100.00;99858.41;5031630;28;20120;-76
2022/11/16 03:26:44;;;;;;;11.13;5.80;;;;;;;8.40;100.00;99852.38;5033117;28;20069;-78
2022/11/16 03:29:22;;;;;;;12.85;5.68;;;;;;;8.37;100.00;99852.69;5033951;28;20454;-78
2022/11/16 03:31:54;;;;;;;12.13;5.20;;;;;;;8.33;100.00;99855.78;5034071;28;20025;-79
2022/11/16 03:34:24;;;;;;;7.82;5.47;;;;;;;8.30;100.00;99849.81;5034677;28;20025;-79
2022/11/16 03:36:53;;;;;;;17.35;5.93;;;;;;;8.31;100.00;99861.25;5034199;28;20120;-79
2022/11/16 03:39:32;;;;;;;10.25;5.30;;;;;;;8.29;100.00;99856.09;5034500;28;20029;-78
2022/11/16 03:42:00;;;;;;;13.32;5.97;;;;;;;8.32;100.00;99865.56;5034189;28;20025;-78
2022/11/16 03:44:26;;;;;;;14.15;6.28;;;;;;;8.33;100.00;99861.09;5033211;28;20061;-79
2022/11/16 03:46:52;;;;;;;11.52;6.20;;;;;;;8.33;100.00;99856.66;5033598;28;20083;-79
2022/11/16 03:49:21;;;;;;;11.38;6.15;;;;;;;8.33;100.00;99864.59;5037009;28;20037;-78
2022/11/16 03:51:48;;;;;;;17.50;6.18;;;;;;;8.33;100.00;99861.09;5039652;28;20044;-79
2022/11/16 03:54:14;;;;;;;10.65;6.18;;;;;;;8.31;100.00;99861.25;5039782;28;20112;-78
2022/11/16 03:56:39;;;;;;;10.23;6.47;;;;;;;8.29;100.00;99861.38;5039983;28;20117;-78
2022/11/16 03:59:05;;;;;;;13.02;6.65;;;;;;;8.25;100.00;99853.88;5040349;28;20386;-79
2022/11/16 04:01:30;;;;;;;16.23;6.50;;;;;;;8.23;100.00;99856.69;5055453;28;20450;-78
2022/11/16 04:03:55;;;;;;;10.98;6.57;;;;;;;8.25;100.00;99864.47;5039734;28;20034;-78
2022/11/16 04:25:40;;;;;;;13.55;6.78;;;;;;;8.05;100.00;99869.06;5040078;28;20385;-78
2022/11/16 04:28:12;;;;;;;12.73;6.18;;;;;;;8.00;100.00;99877.44;5040241;28;20052;-78
2022/11/16 04:39:02;;;;;;;11.90;5.90;;;;;;;7.92;100.00;99882.63;5039784;28;20088;-79
2022/11/16 04:44:14;;;;;;;18.58;6.45;;;;;;;7.94;100.00;99889.44;5040863;28;20044;-78
2022/11/16 04:49:23;;;;;;;13.57;6.80;;;;;;;7.93;100.00;99884.31;5040837;28;20048;-78
2022/11/16 04:51:49;;;;;;;16.77;6.55;;;;;;;7.89;100.00;99883.75;5039866;28;20037;-78
2022/11/16 04:54:15;;;;;;;13.55;6.50;;;;;;;7.87;100.00;99879.59;5039176;28;20072;-78
2022/11/16 04:56:41;;;;;;;19.45;6.35;;;;;;;7.82;100.00;99887.94;5040130;28;20034;-78
2022/11/16 04:59:08;;;;;;;14.25;5.90;;;;;;;7.78;100.00;99889.22;5039642;28;20049;-78
2022/11/16 05:04:19;;;;;;;14.88;6.35;;;;;;;7.77;100.00;99888.38;5037222;28;20068;-78
2022/11/16 05:06:45;;;;;;;11.32;5.88;;;;;;;7.73;100.00;99886.16;5035008;28;20057;-78
2022/11/16 05:09:11;;;;;;;14.93;5.97;;;;;;;7.72;100.00;99880.03;5036235;28;20038;-78
2022/11/16 05:11:36;;;;;;;14.82;6.40;;;;;;;7.70;100.00;99882.00;5036227;28;20030;-77
2022/11/16 05:14:01;;;;;;;16.25;6.25;;;;;;;7.69;100.00;99885.63;5035803;28;20033;-78
2022/11/16 05:16:27;;;;;;;17.80;5.57;;;;;;;7.67;100.00;99878.81;5035980;28;20187;-78
2022/11/16 05:21:37;;;;;;;15.20;5.20;;;;;;;7.65;100.00;99884.25;5036163;28;20490;-77
2022/11/16 05:26:46;;;;;;;16.90;5.57;;;;;;;7.57;100.00;99881.50;5035758;28;20224;-78
2022/11/16 05:29:12;;;;;;;15.60;5.10;;;;;;;7.52;100.00;99881.06;5034185;28;20561;-78
2022/11/16 05:31:37;;;;;;;12.88;6.00;;;;;;;7.49;100.00;99891.94;5035445;28;20099;-78
2022/11/16 05:34:02;;;;;;;8.98;4.65;;;;;;;7.42;100.00;99889.03;5035394;28;20033;-78
2022/11/16 05:36:28;;;;;;;16.08;5.25;;;;;;;7.37;100.00;99896.56;5035396;28;20034;-78
2022/11/16 05:38:53;;;;;;;17.55;5.47;;;;;;;7.33;100.00;99903.94;5035445;28;20061;-78
2022/11/16 05:41:18;;;;;;;15.02;5.80;;;;;;;7.30;100.00;99888.34;5035257;28;20034;-78
2022/11/16 05:43:44;;;;;;;11.18;5.20;;;;;;;7.27;100.00;99880.72;5035325;28;20029;-78
2022/11/16 05:46:09;;;;;;;16.35;4.80;;;;;;;7.24;100.00;99894.22;5035431;28;20064;-79
2022/11/16 05:48:34;;;;;;;10.55;4.50;;;;;;;7.16;100.00;99889.59;5035510;28;20029;-78
2022/11/16 05:51:00;;;;;;;13.82;4.90;;;;;;;7.11;100.00;99891.84;5035429;28;20033;-78
2022/11/16 05:53:25;;;;;;;6.55;3.20;;;;;;;7.07;100.00;99887.81;5035302;28;20164;-78
2022/11/16 05:55:51;;;;;;;7.18;3.60;;;;;;;6.99;100.00;99888.50;5035856;28;20124;-79
2022/11/16 05:58:16;;;;;;;13.27;3.45;;;;;;;6.91;100.00;99891.00;5034986;28;20398;-78
2022/11/16 06:00:44;;;;;;;9.80;3.42;;;;;;;6.82;100.00;99897.13;5035144;28;20481;-78
2022/11/16 06:03:09;;;;;;;16.70;3.20;;;;;;;6.75;100.00;99896.00;5034927;28;20037;-79
2022/11/16 06:05:35;;;;;;;9.35;3.15;;;;;;;6.69;100.00;99898.22;5033730;28;20136;-79
2022/11/16 06:08:00;;;;;;;8.50;2.85;;;;;;;6.63;100.00;99904.06;5035332;28;20513;-78
2022/11/16 06:10:25;;;;;;;11.90;3.20;;;;;;;6.55;100.00;99905.72;5035184;28;20038;-77
2022/11/16 06:12:51;;;;;;;7.88;3.30;;;;;;;6.45;100.00;99905.66;5034348;28;20129;-77
2022/11/16 06:15:16;;;;;;;11.32;2.67;;;;;;;6.38;100.00;99915.13;5034261;28;20033;-78
2022/11/16 06:17:42;;;;;;;9.00;3.10;;;;;;;6.34;100.00;99910.13;5034271;28;20033;-78
2022/11/16 06:20:07;;;;;;;8.75;2.50;;;;;;;6.27;100.00;99908.97;5034758;28;20120;-80
2022/11/16 06:22:33;;;;;;;8.27;2.72;;;;;;;6.19;100.00;99908.78;5034946;28;20029;-80
2022/11/16 06:24:58;;;;;;;14.43;3.00;;;;;;;6.14;100.00;99917.13;5034661;28;20096;-77
2022/11/16 06:27:23;;;;;;;8.60;3.15;;;;;;;6.12;100.00;99915.56;5034827;28;20410;-78
2022/11/16 06:29:49;;;;;;;10.75;3.05;;;;;;;6.14;100.00;99917.13;5034909;28;20033;-76
2022/11/16 06:32:14;;;;;;;10.25;3.00;;;;;;;6.09;100.00;99916.69;5034220;28;20029;-79
2022/11/16 06:34:39;;;;;;;9.82;2.75;;;;;;;6.02;100.00;99912.06;5034317;28;20516;-81
2022/11/16 06:37:05;;;;;;;8.07;2.22;;;;;;;5.91;100.00;99913.81;5034082;28;20033;-77
2022/11/16 06:39:30;;;;;;;13.18;3.10;;;;;;;5.82;100.00;99920.72;5034423;28;20056;-80
2022/11/16 06:41:55;;;;;;;6.95;2.35;;;;;;;5.74;100.00;99923.16;5034310;28;20108;-80
2022/11/16 06:44:21;;;;;;;7.72;2.58;;;;;;;5.76;100.00;99917.72;5033710;28;20091;-81
2022/11/16 06:46:46;;;;;;;10.95;2.92;;;;;;;5.81;100.00;99921.66;5049784;28;20115;-80
2022/11/16 06:49:11;;;;;;;11.32;3.00;;;;;;;5.79;100.00;99926.25;5034423;28;20135;-77
2022/11/16 06:51:37;;;;;;;10.60;2.95;;;;;;;5.78;100.00;99926.38;5034142;28;20030;-77
2022/11/16 06:54:02;;;;;;;14.48;3.70;;;;;;;5.74;100.00;99927.59;5032638;28;20496;-75
2022/11/16 06:56:28;;;;;;;9.60;3.17;;;;;;;5.73;100.00;99928.56;5033705;28;20476;-77
2022/11/16 06:58:55;;;;;;;19.85;4.03;;;;;;;5.72;100.00;99940.06;5033929;28;20427;-77
2022/11/16 07:01:21;;;;;;;10.20;3.50;;;;;;;5.71;100.00;99943.69;5033769;28;20064;-80
2022/11/16 07:03:46;;;;;;;9.43;3.20;;;;;;;5.70;100.00;99948.13;5033753;28;20442;-77
2022/11/16 07:06:12;;;;;;;14.80;3.72;;;;;;;5.67;100.00;99948.38;5033444;28;20397;-76
2022/11/16 07:08:38;;;;;;;14.43;3.85;;;;;;;5.67;100.00;99947.56;5033389;28;20033;-78
2022/11/16 07:11:04;;;;;;;13.90;4.35;;;;;;;5.65;100.00;99945.03;5033614;28;20453;-77
2022/11/16 07:13:33;;;;;;;12.77;3.88;;;;;;;5.62;100.00;99945.31;5033225;28;20108;-76
2022/11/16 07:16:03;;;;;;;10.60;3.22;;;;;;;5.56;100.00;99946.66;5033486;28;20442;-77
2022/11/16 07:18:32;;;;;;;13.80;3.00;;;;;;;5.48;100.00;99943.84;5033800;28;20063;-78
2022/11/16 07:20:57;;;;;;;13.57;3.88;;;;;;;5.44;100.00;99950.31;5033640;28;20026;-74
2022/11/16 07:23:22;;;;;;;11.05;3.50;;;;;;;5.44;100.00;99950.31;5033199;28;20026;-79
2022/11/16 07:25:48;;;;;;;19.85;4.22;;;;;;;5.45;100.00;99946.72;5033708;28;20029;-80
2022/11/16 07:28:13;;;;;;;11.05;4.30;;;;;;;5.45;100.00;99955.47;5034365;28;20052;-78
2022/11/16 07:30:38;;;;;;;12.40;4.65;;;;;;;5.48;100.00;99949.94;5031844;28;20029;-80
2022/11/16 07:33:04;;;;;;;15.00;4.65;;;;;;;5.47;100.00;99948.25;5033241;28;20032;-78
2022/11/16 07:35:30;;;;;;;11.23;5.22;;;;;;;5.46;100.00;99957.16;5033128;28;20496;-78
2022/11/16 07:37:55;;;;;;;13.02;4.60;;;;;;;5.48;100.00;99954.38;5033550;28;20503;-80
2022/11/16 07:40:20;;;;;;;11.32;4.55;;;;;;;5.49;100.00;99961.31;5049174;28;20037;-79
2022/11/16 07:42:46;;;;;;;11.45;5.00;;;;;;;5.52;100.00;99968.97;5034200;28;20039;-79
2022/11/16 07:45:11;;;;;;;12.95;4.25;;;;;;;5.52;100.00;99966.34;5034274;28;20044;-79
2022/11/16 07:47:37;;;;;;;10.57;4.00;;;;;;;5.56;100.00;99966.94;5033118;28;20030;-78
2022/11/16 07:50:04;;;;;;;14.77;4.40;;;;;;;5.61;100.00;99967.38;5034205;28;20489;-80
2022/11/16 07:52:29;;;;;;;13.25;4.43;;;;;;;5.65;100.00;99966.16;5033323;28;20026;-79
2022/11/16 07:54:55;;;;;;;14.00;4.10;;;;;;;5.75;100.00;99974.16;5033451;28;20531;-80
2022/11/16 07:57:20;;;;;;;11.60;3.45;;;;;;;5.83;100.00;99977.78;5033179;28;20490;-81
2022/11/16 07:59:45;;;;;;;10.55;3.72;;;;;;;5.92;100.00;99972.72;5032549;28;20561;-79
2022/11/16 08:02:11;;;;;;;11.98;3.75;;;;;;;6.00;100.00;99983.47;5032878;28;20108;-79
2022/11/16 08:04:37;;;;;;;13.90;3.55;;;;;;;6.07;100.00;99983.81;5032859;28;20033;-78
2022/11/16 08:07:03;;;;;;;9.93;3.40;;;;;;;6.14;100.00;99985.78;5032579;28;20065;-83
2022/11/16 08:09:28;;;;;;;10.43;3.63;;;;;;;6.20;100.00;99981.81;5032508;28;20034;-81
2022/11/16 08:11:54;;;;;;;11.00;3.38;;;;;;;6.27;100.00;99982.09;5032872;28;20061;-81
2022/11/16 08:14:19;;;;;;;11.38;3.40;;;;;;;6.34;100.00;99983.25;5032894;28;20036;-81
2022/11/16 08:16:45;;;;;;;12.90;4.10;;;;;;;6.43;100.00;99984.25;5032871;28;20041;-79
2022/11/16 08:19:10;;;;;;;15.63;3.58;;;;;;;6.48;100.00;99976.78;5033094;28;20046;-81
2022/11/16 08:21:35;;;;;;;15.02;3.50;;;;;;;6.53;100.00;99974.56;5048029;28;20036;-81
2022/11/16 08:24:01;;;;;;;9.82;3.47;;;;;;;6.60;100.00;99988.06;5032676;28;20029;-79
2022/11/16 08:26:26;;;;;;;11.35;3.60;;;;;;;6.63;100.00;99971.97;5033536;28;20087;-81
2022/11/16 08:28:52;;;;;;;10.00;3.83;;;;;;;6.67;100.00;99975.97;5033171;28;20120;-80
2022/11/16 08:31:24;;;;;;;13.27;3.55;;;;;;;6.72;100.00;99976.44;5032691;28;20029;-79
2022/11/16 08:33:50;;;;;;;10.45;2.90;;;;;;;6.77;100.00;99984.78;5033221;28;20030;-80
2022/11/16 08:36:17;;;;;;;11.73;3.28;;;;;;;6.82;100.00;99982.59;5051108;28;20566;-79
2022/11/16 08:38:46;;;;;;;10.45;3.28;;;;;;;6.86;100.00;99968.09;5036989;28;20116;-79
2022/11/16 08:41:12;;;;;;;14.05;3.30;;;;;;;6.92;100.00;99973.84;5037192;28;20107;-79
2022/11/16 08:43:39;;;;;;;11.05;3.28;;;;;;;6.97;100.00;99984.81;5035890;28;20478;-79
2022/11/16 08:46:06;;;;;;;17.73;3.38;;;;;;;7.01;100.00;99978.28;5036897;28;20460;-79
2022/11/16 08:48:32;;;;;;;11.60;3.38;;;;;;;7.05;100.00;99977.06;5036212;28;20029;-78
2022/11/16 08:51:06;;;;;;;9.68;3.08;;;;;;;7.06;100.00;99986.63;5036587;28;20029;-78
2022/11/16 08:53:31;;;;;;;9.15;3.33;;;;;;;7.09;100.00;99978.47;5036951;28;20029;-78
2022/11/16 08:56:02;;;;;;;12.25;2.70;;;;;;;7.13;100.00;99986.94;5036601;28;20084;-80
2022/11/16 08:58:27;;;;;;;7.03;2.72;;;;;;;7.16;100.00;99984.84;5036349;28;20045;-75
2022/11/16 09:00:53;;;;;;;12.57;3.03;;;;;;;7.22;100.00;99983.47;5035844;28;20389;-79
2022/11/16 09:03:18;;;;;;;7.57;2.70;;;;;;;7.21;100.00;99985.28;5036250;28;20037;-77
2022/11/16 09:05:45;;;;;;;10.05;2.83;;;;;;;7.27;100.00;99975.97;5035599;28;20470;-78
2022/11/16 09:08:11;;;;;;;10.77;3.08;;;;;;;7.37;100.00;99979.41;5036564;28;20046;-78
2022/11/16 09:10:36;;;;;;;7.53;2.72;;;;;;;7.44;100.00;99985.00;5035627;28;20470;-78
2022/11/16 09:13:02;;;;;;;6.40;2.40;;;;;;;7.47;100.00;99989.19;5035769;28;20120;-79
2022/11/16 09:15:27;;;;;;;10.65;2.63;;;;;;;7.57;100.00;99995.31;5035573;28;20037;-79
2022/11/16 09:17:53;;;;;;;8.15;3.70;;;;;;;7.65;100.00;99989.31;5035811;28;20482;-81
2022/11/16 09:20:19;;;;;;;10.05;2.55;;;;;;;7.76;100.00;99987.34;5034153;28;20049;-80
2022/11/16 09:22:44;;;;;;;8.15;2.33;;;;;;;7.83;100.00;99998.22;5035352;28;20033;-80
2022/11/16 09:25:10;;;;;;;9.20;2.40;;;;;;;7.86;100.00;99994.44;5035559;28;20076;-79
2022/11/16 09:27:36;;;;;;;5.75;2.90;;;;;;;7.88;100.00;99995.97;5035443;28;20033;-82
2022/11/16 09:30:01;;;;;;;10.02;2.78;;;;;;;7.91;100.00;99995.69;5034146;28;20025;-79
2022/11/16 09:32:27;;;;;;;8.52;2.50;;;;;;;7.98;100.00;100000.41;5035574;28;20033;-80
2022/11/16 09:34:52;;;;;;;9.48;2.67;;;;;;;8.02;100.00;99997.34;5035873;28;20102;-80
2022/11/16 09:37:18;;;;;;;11.90;3.20;;;;;;;8.17;100.00;99996.91;5034782;28;20038;-80
2022/11/16 09:39:43;;;;;;;8.02;2.60;;;;;;;8.27;100.00;99993.22;5035552;28;20029;-82
2022/11/16 09:42:23;;;;;;;14.93;3.35;;;;;;;8.31;100.00;99999.06;5035313;28;20505;-82
2022/11/16 09:45:00;;;;;;;9.82;2.67;;;;;;;8.40;100.00;99995.53;5035671;28;20048;-81
2022/11/16 09:47:47;;;;;;;11.80;3.00;;;;;;;8.52;100.00;99993.56;5033837;28;20030;-82
2022/11/16 09:50:42;;;;;;;10.02;2.95;;;;;;;8.54;100.00;99993.41;5036227;28;20048;-82
2022/11/16 09:53:16;;;;;;;11.15;3.00;;;;;;;8.51;100.00;99985.75;5035970;28;20034;-81
2022/11/16 09:55:55;;;;;;;11.85;3.15;;;;;;;8.45;100.00;99989.84;5035240;28;20033;-80
2022/11/16 09:58:57;;;;;;;8.80;3.08;;;;;;;8.38;100.00;99986.06;5035633;28;20053;-82
2022/11/16 10:01:28;;;;;;;11.50;2.90;;;;;;;8.37;100.00;99985.22;5035403;28;20466;-82
2022/11/16 10:04:05;;;;;;;10.73;3.25;;;;;;;8.40;100.00;99998.19;5035362;28;20034;-82
2022/11/16 10:06:45;;;;;;;11.45;3.03;;;;;;;8.47;100.00;99982.56;5035588;28;20577;-81
2022/11/16 10:09:12;;;;;;;10.35;3.92;;;;;;;8.47;100.00;99994.00;5033969;28;20026;-81
2022/11/16 10:11:45;;;;;;;11.07;3.00;;;;;;;8.47;100.00;99987.88;5035738;28;20030;-82
2022/11/16 10:14:48;;;;;;;10.68;3.58;;;;;;;8.53;100.00;99982.00;5035411;28;20044;-81
2022/11/16 10:17:50;;;;;;;8.35;2.92;;;;;;;8.58;100.00;99969.13;5035070;28;20039;-82
2022/11/16 10:20:24;;;;;;;10.18;3.10;;;;;;;8.63;100.00;99969.53;5034771;28;20474;-82
2022/11/16 10:23:01;;;;;;;7.65;2.80;;;;;;;8.71;100.00;99962.66;5034687;28;20547;-81
2022/11/16 10:25:42;;;;;;;9.02;3.40;;;;;;;8.76;100.00;99971.84;5034764;28;20033;-82
2022/11/16 10:28:38;;;;;;;8.65;3.05;;;;;;;8.89;100.00;99973.28;5035507;28;20030;-82
2022/11/16 10:31:16;;;;;;;9.07;3.30;;;;;;;8.90;100.00;99969.66;5034711;28;20065;-81
2022/11/16 10:33:44;;;;;;;10.50;3.17;;;;;;;9.11;100.00;99978.16;5034750;28;20160;-81
2022/11/16 10:36:14;;;;;;;11.68;3.67;;;;;;;9.10;100.00;99976.47;5035076;28;20029;-83
2022/11/16 10:38:41;;;;;;;12.00;2.78;;;;;;;9.27;100.00;99979.28;5033190;28;20033;-80
2022/11/16 10:41:23;;;;;;;13.23;3.10;;;;;;;9.51;100.00;99974.22;5034385;28;20108;-81
2022/11/16 10:43:49;;;;;;;14.60;3.28;;;;;;;9.69;100.00;99982.16;5034665;28;20034;-79
2022/11/16 10:46:25;;;;;;;12.18;2.58;;;;;;;9.81;100.00;99973.97;5034650;28;20044;-81
2022/11/16 10:49:20;;;;;;;16.50;2.75;;;;;;;9.87;100.00;99973.34;5034667;28;20029;-80
2022/11/16 10:51:45;;;;;;;11.65;2.95;;;;;;;9.73;100.00;99963.25;5034331;28;20034;-78
2022/11/16 10:54:12;;;;;;;12.27;2.95;;;;;;;9.66;100.00;99958.56;5034805;28;20053;-78
2022/11/16 10:56:41;;;;;;;9.07;2.65;;;;;;;9.67;100.00;99965.56;5034733;28;20034;-81
2022/11/16 10:59:12;;;;;;;10.05;2.80;;;;;;;9.73;100.00;99952.63;5033087;28;20520;-76
2022/11/16 11:01:48;;;;;;;15.77;4.18;;;;;;;9.80;100.00;99959.81;5034191;28;20481;-81
2022/11/16 11:04:24;;;;;;;9.60;3.20;;;;;;;9.71;100.00;99964.22;5033869;28;20378;-83
2022/11/16 11:06:53;;;;;;;14.75;3.63;;;;;;;9.64;100.00;99963.22;5034140;28;20061;-83
2022/11/16 11:09:21;;;;;;;14.55;3.30;;;;;;;9.65;100.00;99964.84;5034050;28;20112;-79
2022/11/16 11:14:40;;;;;;;9.50;3.30;;;;;;;9.68;100.00;99967.19;5033959;28;20084;-82
2022/11/16 11:17:16;;;;;;;14.02;3.80;;;;;;;9.61;100.00;99963.50;5033683;28;20454;-80
2022/11/16 11:19:41;;;;;;;11.27;3.90;;;;;;;9.57;100.00;99967.47;5033620;28;20116;-79
2022/11/16 11:22:12;;;;;;;9.95;4.15;;;;;;;9.60;100.00;99964.50;5033895;28;20507;-79
2022/11/16 11:24:46;;;;;;;11.77;3.65;;;;;;;9.53;100.00;99969.56;5032781;28;20536;-80
2022/11/16 11:27:12;;;;;;;11.57;3.42;;;;;;;9.52;100.00;99965.28;5033531;28;20026;-80
2022/11/16 11:29:41;;;;;;;12.40;4.10;;;;;;;9.50;100.00;99967.22;5033331;28;20370;-82
2022/11/16 11:32:14;;;;;;;11.52;3.83;;;;;;;9.42;100.00;99961.88;5033368;28;20032;-81
2022/11/16 11:34:52;;;;;;;9.20;3.70;;;;;;;9.40;100.00;99965.66;5031938;28;20512;-79
2022/11/16 11:37:23;;;;;;;12.90;4.00;;;;;;;9.39;100.00;99964.81;5033206;28;20087;-80
2022/11/16 11:40:23;;;;;;;10.57;4.18;;;;;;;9.35;100.00;99963.47;5033333;28;20025;-77
2022/11/16 11:42:57;;;;;;;7.50;3.58;;;;;;;9.38;100.00;99957.84;5032774;28;20046;-79
2022/11/16 11:45:31;;;;;;;9.52;4.22;;;;;;;9.35;100.00;99952.84;5033167;28;20040;-81
2022/11/16 11:48:04;;;;;;;9.27;3.78;;;;;;;9.46;100.00;99955.25;5033127;28;20025;-81
2022/11/16 11:50:44;;;;;;;12.05;4.57;;;;;;;9.55;100.00;99950.84;5032765;28;20357;-79
2022/11/16 11:53:31;;;;;;;7.32;3.90;;;;;;;9.60;100.00;99945.06;5033313;28;20185;-84
2022/11/16 11:55:58;;;;;;;11.07;4.47;;;;;;;9.75;100.00;99946.19;5033679;28;20410;-80
2022/11/16 11:58:36;;;;;;;14.00;3.80;;;;;;;9.81;100.00;99936.75;5034816;28;20060;-81
2022/11/16 12:01:16;;;;;;;9.88;4.40;;;;;;;10.00;100.00;99930.38;5032909;28;20021;-84
2022/11/16 12:03:41;;;;;;;13.05;4.93;;;;;;;10.19;100.00;99935.47;5035455;28;20029;-79
2022/11/16 12:06:20;;;;;;;8.18;3.65;;;;;;;10.06;100.00;99937.72;5033141;28;20033;-81
2022/11/16 12:09:11;;;;;;;8.63;3.97;;;;;;;10.01;100.00;99937.38;5033688;28;20034;-81
2022/11/16 12:11:36;;;;;;;10.32;3.50;;;;;;;9.86;100.00;99934.44;5037653;28;20036;-82
2022/11/16 12:14:23;;;;;;;10.98;3.60;;;;;;;9.83;100.00;99932.94;5037982;28;20033;-80
2022/11/16 12:17:26;;;;;;;8.27;3.47;;;;;;;9.93;100.00;99916.91;5038993;28;20486;-80
2022/11/16 12:20:06;;;;;;;8.35;3.65;;;;;;;9.99;100.00;99928.72;5038281;28;20026;-82
2022/11/16 12:22:41;;;;;;;11.43;4.15;;;;;;;9.90;100.00;99930.50;5038248;28;20120;-84
2022/11/16 12:25:24;;;;;;;16.33;3.67;;;;;;;9.83;100.00;99935.59;5037664;28;20032;-82
2022/11/16 12:28:20;;;;;;;7.25;3.45;;;;;;;9.84;100.00;99928.47;5038885;28;20075;-83